Columbia Regional Airport
KCOU : rendu visible

Aérodrome :











RETROUVEZ-NOUS SUR...

 
LOGIN :

S'inscrire | Disclaimer

   EN    FR    IT 

 









Légende :    VFR   VFR Marginal   IFR   IFR Intensif   IFR Très Intensif
Visi : 
Plafond : 
>= 8 km
>= 3000ft
5 à 8 km
1000 à 3000 ft
1500m à 5 km
500 à 1000 ft
800 à 1500m
200 à 500 ft
< 800m
< 200 ft
Symboles :   Orages  Brouillard  Fortes neiges  Fortes précipitations  Vent > 20 kt






- Altitude de l'aérodrome : 889 ft
- Code IATA : COU


KCOU - Columbia Regional

DERNIER METAR :
  • 100654Z AUTO 30013KT 10SM CLR M06/M12 A3015 RMK AO2 SLP216 T10611117

METARs EXPIRÉS :
  • 100554Z AUTO 29011KT 10SM CLR M06/M11 A3014 RMK AO2 SLP212 T10611111 11017 21061 401001061 51026
  • 100454Z AUTO 29013KT 10SM CLR M06/M11 A3012 RMK AO2 SLP204 T10561106

TAF KCOU
Valide du 10 à 06h jusqu'au 11 à 06h UTC


100520Z 1006/1106 30012G20KT P6SM BKN250
FM101100 30009KT P6SM BKN250
FM110000 VRB04KT P6SM FEW250



MET'MAP, la Météo Aéronautique d'un coup d'oeil ! - Copyright ORBIFLY Décembre 2007 - Disclaimer

ORBIFLY MET'MAP TEAM :

Programmation & Développement : Alexandra Zaïnal
Sur une idée originale de : Baudouin d'Aumeries
Assistance à la programmation : Marc-Olivier Méhu
Soutien technique & logistique : Manuel Goepfert

Contact : metmap@orbifly.com




SOURCES & CREDITS :

   NOAA       Earth
Advisory